createdAt,value
2022-11-20T00:01:29.564Z,100907.38
2022-11-20T00:05:33.516Z,100902.94
2022-11-20T00:09:34.913Z,100903.72
2022-11-20T00:13:36.427Z,100906.66
2022-11-20T00:17:37.857Z,100898.78
2022-11-20T00:21:39.397Z,100909.25
2022-11-20T00:25:40.799Z,100907.53
2022-11-20T00:29:42.294Z,100904.13
2022-11-20T00:33:44.728Z,100908.31
2022-11-20T00:37:46.145Z,100913.72
2022-11-20T00:41:47.574Z,100905.66
2022-11-20T00:45:48.983Z,100905.75
2022-11-20T00:49:50.366Z,100912.75
2022-11-20T00:53:51.886Z,100908.56
2022-11-20T00:57:53.278Z,100915.44
2022-11-20T01:01:54.723Z,100910.19
2022-11-20T01:06:00.667Z,100897.88
2022-11-20T01:10:02.103Z,100899.69
2022-11-20T01:14:06.267Z,100900.50
2022-11-20T01:18:07.684Z,100894.38
2022-11-20T01:22:09.082Z,100894.50
2022-11-20T01:26:13.993Z,100889.09
2022-11-20T01:30:15.465Z,100893.66
2022-11-20T01:34:19.576Z,100890.09
2022-11-20T01:38:21.416Z,100889.84
2022-11-20T01:42:41.734Z,100891.00
2022-11-20T01:46:49.070Z,100890.09
2022-11-20T01:50:53.487Z,100875.19
2022-11-20T01:55:18.542Z,100879.44
2022-11-20T01:59:21.865Z,100872.44
2022-11-20T02:03:24.691Z,100875.94
2022-11-20T02:07:26.293Z,100867.41
2022-11-20T02:11:30.586Z,100867.22
2022-11-20T02:15:34.123Z,100866.94
2022-11-20T02:19:35.670Z,100867.84
2022-11-20T02:24:04.248Z,100858.53
2022-11-20T02:28:06.677Z,100854.72
2022-11-20T02:32:21.952Z,100847.06
2022-11-20T02:36:27.456Z,100849.66
2022-11-20T02:40:29.432Z,100847.97
2022-11-20T02:44:30.857Z,100840.00
2022-11-20T02:48:33.941Z,100835.56
2022-11-20T02:52:35.586Z,100840.00
2022-11-20T02:56:39.356Z,100839.25
2022-11-20T03:00:40.872Z,100840.22
2022-11-20T03:04:42.274Z,100838.31
2022-11-20T03:08:43.743Z,100834.03
2022-11-20T03:12:45.161Z,100828.88
2022-11-20T03:16:46.592Z,100830.53
2022-11-20T03:20:48.090Z,100825.41
2022-11-20T03:24:49.511Z,100830.66
2022-11-20T03:28:56.596Z,100821.03
2022-11-20T03:32:58.031Z,100825.31
2022-11-20T03:36:59.456Z,100818.28
2022-11-20T03:41:03.384Z,100812.25
2022-11-20T03:45:05.666Z,100809.47
2022-11-20T03:49:07.669Z,100809.59
2022-11-20T03:53:09.151Z,100812.75
2022-11-20T03:57:10.624Z,100802.28
2022-11-20T04:01:14.886Z,100805.88
2022-11-20T04:05:16.432Z,100805.09
2022-11-20T04:09:18.000Z,100804.25
2022-11-20T04:13:19.557Z,100800.53
2022-11-20T04:17:20.976Z,100808.34
2022-11-20T04:21:23.288Z,100797.91
2022-11-20T04:25:24.713Z,100800.56
2022-11-20T04:29:26.186Z,100806.59
2022-11-20T04:33:30.043Z,100808.13
2022-11-20T04:37:34.684Z,100804.84
2022-11-20T04:41:37.174Z,100807.59
2022-11-20T04:45:38.613Z,100789.19
2022-11-20T04:49:40.049Z,100790.00
2022-11-20T04:53:41.560Z,100787.47
2022-11-20T04:57:42.987Z,100787.50
2022-11-20T05:01:44.436Z,100785.72
2022-11-20T05:05:45.950Z,100784.78
2022-11-20T05:09:47.394Z,100779.41
2022-11-20T05:13:49.798Z,100775.94
2022-11-20T05:17:53.259Z,100770.81
2022-11-20T05:21:54.681Z,100772.38
2022-11-20T05:25:59.065Z,100774.34
2022-11-20T05:30:00.892Z,100762.91
2022-11-20T05:34:02.357Z,100759.44
2022-11-20T05:38:03.819Z,100762.94
2022-11-20T05:42:24.054Z,100760.22
2022-11-20T05:46:28.660Z,100753.97
2022-11-20T05:50:30.962Z,100748.69
2022-11-20T05:54:32.759Z,100745.81
2022-11-20T05:58:34.661Z,100751.75
2022-11-20T06:02:36.947Z,100750.69
2022-11-20T06:06:38.538Z,100746.00
2022-11-20T06:10:39.949Z,100749.03
2022-11-20T06:14:41.385Z,100749.94
2022-11-20T06:18:43.163Z,100748.69
2022-11-20T06:22:44.576Z,100743.69
2022-11-20T06:26:46.032Z,100750.69
2022-11-20T06:30:47.518Z,100747.06
2022-11-20T06:34:48.917Z,100744.41
2022-11-20T06:38:50.561Z,100751.31
2022-11-20T06:42:54.058Z,100746.78
2022-11-20T06:46:55.500Z,100743.50
2022-11-20T06:50:57.754Z,100744.50
2022-11-20T06:54:59.183Z,100743.41
2022-11-20T06:59:05.779Z,100745.06
2022-11-20T07:03:09.498Z,100743.47
2022-11-20T07:07:10.972Z,100746.94
2022-11-20T07:11:12.992Z,100749.69
2022-11-20T07:15:14.531Z,100746.00
2022-11-20T07:19:15.930Z,100737.38
2022-11-20T07:23:17.405Z,100741.44
2022-11-20T07:27:18.903Z,100736.19
2022-11-20T07:31:20.381Z,100725.56
2022-11-20T07:35:22.915Z,100727.13
2022-11-20T07:39:24.360Z,100729.75
2022-11-20T07:43:26.320Z,100728.41
2022-11-20T07:47:27.789Z,100723.16
2022-11-20T07:51:30.325Z,100717.94
2022-11-20T07:55:32.572Z,100721.47
2022-11-20T07:59:34.146Z,100724.91
2022-11-20T08:03:35.854Z,100732.78
2022-11-20T08:07:42.130Z,100729.31
2022-11-20T08:12:02.109Z,100726.84
2022-11-20T08:16:03.786Z,100724.97
2022-11-20T08:20:05.564Z,100738.47
2022-11-20T08:24:08.005Z,100729.53
2022-11-20T08:28:20.321Z,100734.94
2022-11-20T08:32:22.941Z,100737.94
2022-11-20T08:36:25.099Z,100737.06
2022-11-20T08:40:26.573Z,100733.53
2022-11-20T08:44:28.242Z,100740.25
2022-11-20T08:48:29.681Z,100742.84
2022-11-20T08:52:32.546Z,100749.81
2022-11-20T08:56:36.676Z,100746.94
2022-11-20T09:00:38.087Z,100746.56
2022-11-20T09:04:39.574Z,100749.38
2022-11-20T09:08:41.166Z,100744.03
2022-11-20T09:12:42.718Z,100735.28
2022-11-20T09:16:46.145Z,100732.28
2022-11-20T09:20:47.700Z,100730.84
2022-11-20T09:24:49.998Z,100732.56
2022-11-20T09:28:56.780Z,100734.31
2022-11-20T09:32:59.501Z,100723.16
2022-11-20T09:37:04.472Z,100729.03
2022-11-20T09:41:33.535Z,100730.78
2022-11-20T09:45:58.941Z,100726.88
2022-11-20T09:50:27.015Z,100720.88
2022-11-20T09:54:36.527Z,100731.84
2022-11-20T09:58:51.269Z,100730.28
2022-11-20T10:03:15.943Z,100722.56
2022-11-20T10:07:32.662Z,100713.91
2022-11-20T10:12:06.702Z,100718.00
2022-11-20T10:16:52.790Z,100722.66
2022-11-20T10:21:13.235Z,100727.88
2022-11-20T10:25:15.909Z,100724.00
2022-11-20T10:29:20.163Z,100714.47
2022-11-20T10:33:29.014Z,100710.75
2022-11-20T10:37:38.839Z,100708.28
2022-11-20T10:41:42.940Z,100704.78
2022-11-20T10:46:09.736Z,100704.63
2022-11-20T10:50:21.673Z,100703.19
2022-11-20T10:54:48.561Z,100697.25
2022-11-20T10:59:26.381Z,100698.81
2022-11-20T11:03:31.618Z,100713.50
2022-11-20T11:07:39.363Z,100705.19
2022-11-20T11:11:40.894Z,100711.72
2022-11-20T11:15:42.298Z,100704.09
2022-11-20T11:19:43.667Z,100704.78
2022-11-20T11:23:45.065Z,100704.22
2022-11-20T11:27:48.842Z,100705.19
2022-11-20T11:31:50.557Z,100708.28
2022-11-20T11:35:58.273Z,100698.81
2022-11-20T11:40:22.951Z,100711.84
2022-11-20T11:44:43.580Z,100706.13
2022-11-20T11:48:56.199Z,100702.41
2022-11-20T11:53:17.569Z,100704.97
2022-11-20T11:57:24.258Z,100704.13
2022-11-20T12:01:30.708Z,100708.88
2022-11-20T12:05:41.078Z,100694.06
2022-11-20T12:09:50.379Z,100693.06
2022-11-20T12:14:05.276Z,100689.50
2022-11-20T12:18:16.854Z,100692.19
2022-11-20T12:22:27.060Z,100694.72
2022-11-20T12:26:45.532Z,100687.47
2022-11-20T12:31:14.842Z,100684.22
2022-11-20T12:35:37.151Z,100678.28
2022-11-20T12:39:51.630Z,100678.16
2022-11-20T12:44:53.785Z,100678.09
2022-11-20T12:49:09.710Z,100680.38
2022-11-20T12:53:31.541Z,100680.50
2022-11-20T12:57:51.533Z,100682.94
2022-11-20T13:02:01.176Z,100677.16
2022-11-20T13:06:14.599Z,100676.75
2022-11-20T13:10:40.900Z,100668.13
2022-11-20T13:14:48.396Z,100675.94
2022-11-20T13:18:50.004Z,100678.38
2022-11-20T13:22:55.571Z,100670.97
2022-11-20T13:27:20.459Z,100673.94
2022-11-20T13:31:31.607Z,100664.81
2022-11-20T13:35:38.927Z,100662.34
2022-11-20T13:39:40.353Z,100655.56
2022-11-20T13:43:42.961Z,100647.72
2022-11-20T13:47:50.241Z,100648.69
2022-11-20T13:51:58.783Z,100652.06
2022-11-20T13:56:09.969Z,100651.16
2022-11-20T14:00:14.272Z,100654.75
2022-11-20T14:04:26.703Z,100659.25
2022-11-20T14:08:39.141Z,100650.38
2022-11-20T14:12:40.649Z,100644.25
2022-11-20T14:16:43.834Z,100646.97
2022-11-20T14:20:45.550Z,100643.31
2022-11-20T14:24:48.119Z,100633.59
2022-11-20T14:28:52.000Z,100637.06
2022-11-20T14:33:02.325Z,100621.97
2022-11-20T14:37:06.600Z,100624.25
2022-11-20T14:41:19.224Z,100610.19
2022-11-20T14:45:22.012Z,100599.50
2022-11-20T14:49:23.643Z,100603.84
2022-11-20T14:53:26.036Z,100600.44
2022-11-20T14:57:33.034Z,100611.88
2022-11-20T15:01:35.598Z,100614.25
2022-11-20T15:05:48.495Z,100610.66
2022-11-20T15:10:01.097Z,100616.63
2022-11-20T15:14:06.975Z,100615.34
2022-11-20T15:18:16.566Z,100616.38
2022-11-20T15:22:18.059Z,100608.06
2022-11-20T15:26:25.606Z,100608.00
2022-11-20T15:30:27.060Z,100607.09
2022-11-20T15:34:28.593Z,100596.59
2022-11-20T15:38:30.057Z,100589.59
2022-11-20T15:42:31.469Z,100588.50
2022-11-20T15:46:39.340Z,100589.66
2022-11-20T15:51:04.731Z,100593.91
2022-11-20T15:55:11.412Z,100587.84
2022-11-20T15:59:14.972Z,100578.00
2022-11-20T16:03:17.490Z,100575.06
2022-11-20T16:07:19.037Z,100575.59
2022-11-20T16:11:20.579Z,100579.53
2022-11-20T16:15:40.539Z,100595.22
2022-11-20T16:19:41.942Z,100591.34
2022-11-20T16:23:43.617Z,100592.69
2022-11-20T16:27:45.019Z,100583.78
2022-11-20T16:31:46.610Z,100583.88
2022-11-20T16:35:48.124Z,100579.31
2022-11-20T16:39:49.533Z,100589.00
2022-11-20T16:43:52.997Z,100587.25
2022-11-20T16:47:54.735Z,100586.97
2022-11-20T16:51:56.144Z,100581.06
2022-11-20T16:55:57.564Z,100569.78
2022-11-20T17:00:02.248Z,100565.69
2022-11-20T17:04:07.044Z,100576.88
2022-11-20T17:08:08.453Z,100575.38
2022-11-20T17:12:09.930Z,100569.97
2022-11-20T17:16:20.283Z,100560.91
2022-11-20T17:20:21.910Z,100555.09
2022-11-20T17:24:26.384Z,100547.19
2022-11-20T17:28:31.863Z,100540.13
2022-11-20T17:32:33.301Z,100544.63
2022-11-20T17:36:35.014Z,100539.28
2022-11-20T17:40:36.457Z,100541.00
2022-11-20T17:44:37.961Z,100540.16
2022-11-20T17:48:44.019Z,100529.53
2022-11-20T17:52:45.421Z,100533.72
2022-11-20T17:57:05.593Z,100527.66
2022-11-20T18:01:08.156Z,100517.66
2022-11-20T18:05:09.605Z,100518.59
2022-11-20T18:09:12.065Z,100527.47
2022-11-20T18:13:13.464Z,100524.03
2022-11-20T18:17:15.665Z,100516.22
2022-11-20T18:21:17.172Z,100516.22
2022-11-20T18:25:18.601Z,100507.53
2022-11-20T18:29:20.018Z,100512.84
2022-11-20T18:33:27.000Z,100512.25
2022-11-20T18:37:31.674Z,100513.84
2022-11-20T18:41:51.679Z,100515.03
2022-11-20T18:46:02.465Z,100516.78
2022-11-20T18:50:05.639Z,100515.66
2022-11-20T18:54:07.734Z,100518.22
2022-11-20T18:58:09.140Z,100520.34
2022-11-20T19:02:15.998Z,100518.91
2022-11-20T19:06:17.955Z,100522.38
2022-11-20T19:10:20.332Z,100519.88
2022-11-20T19:14:21.840Z,100521.81
2022-11-20T19:18:23.251Z,100518.06
2022-11-20T19:22:24.725Z,100514.28
2022-11-20T19:26:26.789Z,100506.56
2022-11-20T19:30:28.195Z,100509.59
2022-11-20T19:34:29.771Z,100506.19
2022-11-20T19:38:31.203Z,100504.81
2022-11-20T19:42:32.655Z,100496.06
2022-11-20T19:46:36.655Z,100505.69
2022-11-20T19:50:38.184Z,100507.41
2022-11-20T19:54:39.656Z,100510.06
2022-11-20T19:58:42.141Z,100510.06
2022-11-20T20:02:43.573Z,100502.50
2022-11-20T20:06:45.037Z,100498.97
2022-11-20T20:10:46.442Z,100503.59
2022-11-20T20:14:47.893Z,100495.28
2022-11-20T20:18:55.194Z,100490.72
2022-11-20T20:22:56.695Z,100488.97
2022-11-20T20:26:58.646Z,100500.72
2022-11-20T20:31:13.488Z,100500.22
2022-11-20T20:35:14.926Z,100508.66
2022-11-20T20:39:16.525Z,100497.81
2022-11-20T20:43:18.045Z,100492.63
2022-11-20T20:47:19.873Z,100494.84
2022-11-20T20:51:22.086Z,100494.97
2022-11-20T20:55:23.538Z,100489.53
2022-11-20T20:59:25.448Z,100486.06
2022-11-20T21:03:30.657Z,100487.06
2022-11-20T21:07:34.423Z,100479.72
2022-11-20T21:11:35.867Z,100487.59
2022-11-20T21:15:39.286Z,100472.25
2022-11-20T21:19:40.701Z,100471.22
2022-11-20T21:23:46.204Z,100463.16
2022-11-20T21:27:47.808Z,100465.97
2022-11-20T21:31:49.962Z,100453.69
2022-11-20T21:35:51.438Z,100450.94
2022-11-20T21:39:52.859Z,100451.16
2022-11-20T21:44:29.077Z,100438.06
2022-11-20T21:48:16.553Z,100429.56
2022-11-20T21:52:17.968Z,100436.31
2022-11-20T21:56:22.646Z,100423.44
2022-11-20T22:00:24.030Z,100416.72
2022-11-20T22:04:25.713Z,100409.75
2022-11-20T22:08:27.658Z,100404.94
2022-11-20T22:12:29.065Z,100394.69
2022-11-20T22:16:30.830Z,100396.72
2022-11-20T22:20:32.252Z,100386.19
2022-11-20T22:24:33.667Z,100379.31
2022-11-20T22:28:36.008Z,100374.53
2022-11-20T22:32:37.451Z,100374.00
2022-11-20T22:36:39.786Z,100372.22
2022-11-20T22:40:43.673Z,100364.16
2022-11-20T22:44:45.059Z,100363.81
2022-11-20T22:48:52.161Z,100366.81
2022-11-20T22:52:53.608Z,100357.09
2022-11-20T22:56:55.091Z,100372.00
2022-11-20T23:01:05.854Z,100362.28
2022-11-20T23:05:07.435Z,100360.69
2022-11-20T23:09:09.530Z,100354.59
2022-11-20T23:13:10.976Z,100351.81
2022-11-20T23:17:12.439Z,100342.00
2022-11-20T23:21:16.069Z,100341.16
2022-11-20T23:25:17.485Z,100344.59
2022-11-20T23:29:18.893Z,100344.03
2022-11-20T23:33:20.337Z,100349.56
2022-11-20T23:37:21.747Z,100348.66
2022-11-20T23:41:23.183Z,100342.53
2022-11-20T23:45:24.609Z,100343.38
2022-11-20T23:49:26.125Z,100327.44
2022-11-20T23:53:28.166Z,100331.09
2022-11-20T23:57:29.559Z,100327.53
